Flight Track Log - Related Links

Times and Time Zones

All times are in EDT time to prevent confusion due to time zone crossing. See the AFL150 flight status page for this flight to view local times or setup timezone preferences in your user account.

Time Position Orientation Groundspeed Altitude Reporting Facility
EDT Latitude Longitude Course Direction KTS MPH feet Rate Location/Type
Mon 05:14:00 AM 56.2043 36.7970 307° West  Level Estimated
Mon 05:15:00 AM 56.2737 36.6266 306° West  Level Estimated
Mon 05:16:00 AM 56.3429 36.4554 306° West  Level Estimated
Mon 05:17:00 AM 56.4119 36.2837 306° West  Level Estimated
Mon 05:18:00 AM 56.4807 36.1114 306° West  Level Estimated
Mon 05:19:00 AM 56.5491 35.9384 306° West  Level Estimated
Mon 05:20:00 AM 56.6174 35.7648 306° West  Level Estimated
Mon 05:21:00 AM 56.6854 35.5906 305° West  Level Estimated
Mon 05:22:00 AM 56.7532 35.4157 305° West  Level Estimated
Mon 05:23:00 AM 56.8207 35.2402 305° West  Level Estimated
Mon 05:24:00 AM 56.8880 35.0641 305° West  Level Estimated
Mon 05:25:00 AM 56.9550 34.8874 305° West  Level Estimated
Mon 05:26:00 AM 57.0218 34.7100 305° West  Level Estimated
Mon 05:27:00 AM 57.0883 34.5320 305° West  Level Estimated
Mon 05:28:00 AM 57.1546 34.3533 304° West  Level Estimated
Mon 05:29:00 AM 57.2206 34.1740 304° West  Level Estimated
Mon 05:30:00 AM 57.2864 33.9940 304° West  Level Estimated
Mon 05:31:00 AM 57.3519 33.8134 304° West  Level Estimated
Mon 05:32:00 AM 57.4171 33.6322 304° West  Level Estimated
Mon 05:33:00 AM 57.4821 33.4503 304° West  Level Estimated
Mon 05:34:00 AM 57.5469 33.2678 304° West  Level Estimated
Mon 05:35:00 AM 57.6113 33.0846 303° West  Level Estimated
Mon 05:36:00 AM 57.6755 32.9008 303° West  Level Estimated
Mon 05:37:00 AM 57.7394 32.7163 303° West  Level Estimated
Mon 05:38:00 AM 57.8031 32.5312 303° West  Level Estimated
Mon 05:39:00 AM 57.8665 32.3454 303° West  Level Estimated
Mon 05:40:00 AM 57.9296 32.1590 303° West  Level Estimated
Mon 05:41:00 AM 57.9924 31.9719 302° West  Level Estimated
Mon 05:42:00 AM 58.0550 31.7841 302° West  Level Estimated
Mon 05:43:00 AM 58.1173 31.5958 302° West  Level Estimated
Mon 05:44:00 AM 58.1793 31.4067 302° West  Level Estimated
Mon 05:45:00 AM 58.2410 31.2170 302° West  Level Estimated
Mon 05:46:00 AM 58.3025 31.0266 302° West  Level Estimated
Mon 05:47:00 AM 58.3636 30.8356 301° West  Level Estimated
Mon 05:48:00 AM 58.4245 30.6438 301° West  Level Estimated
Mon 05:49:00 AM 58.4851 30.4515 301° West  Level Estimated
Mon 05:50:00 AM 58.5454 30.2584 301° West  Level Estimated
Mon 05:51:00 AM 58.6054 30.0648 301° West  Level Estimated
Mon 05:52:00 AM 58.6651 29.8704 301° West  Level Estimated
Mon 05:53:00 AM 58.7245 29.6754 300° West  Level Estimated
Mon 05:54:00 AM 58.7837 29.4797 300° West  Level Estimated
Mon 05:55:00 AM 58.8425 29.2833 300° West  Level Estimated
Mon 05:56:00 AM 58.9010 29.0863 300° West  Level Estimated
Mon 05:57:00 AM 58.9593 28.8886 300° West  Level Estimated
Mon 05:58:00 AM 59.0172 28.6903 300° West  Level Estimated
Mon 05:59:00 AM 59.0748 28.4913 299° West  Level Estimated
Mon 06:00:00 AM 59.1321 28.2916 299° West  Level Estimated
Mon 06:01:00 AM 59.1892 28.0912 299° West  Level Estimated
Mon 06:02:00 AM 59.2458 27.8902 299° West  Level Estimated
Mon 06:03:00 AM 59.3022 27.6885 299° West  Level Estimated
Mon 06:04:00 AM 59.3583 27.4861 299° West  Level Estimated
Mon 06:05:00 AM 59.4141 27.2831 298° West  Level Estimated
Mon 06:06:00 AM 59.4695 27.0794 298° West  Level Estimated
Mon 06:07:00 AM 59.5247 26.8751 298° West  Level Estimated
Mon 06:08:00 AM 59.5795 26.6700 298° West  Level Estimated
Mon 06:09:00 AM 59.6340 26.4643 298° West  Level Estimated
Mon 06:10:00 AM 59.6881 26.2580 298° West  Level Estimated
Mon 06:11:00 AM 59.7420 26.0509 297° West  Level Estimated
Mon 06:12:00 AM 59.7955 25.8432 297° West  Level Estimated
Mon 06:13:00 AM 59.8487 25.6349 297° West  Level Estimated
Mon 06:14:00 AM 59.9015 25.4258 297° West  Level Estimated
Mon 06:15:00 AM 59.9540 25.2162 297° West  Level Estimated
Mon 06:16:00 AM 60.0062 25.0058 296° West  Level Estimated
Mon 06:17:00 AM 60.0581 24.7948 296° West  Level Estimated
Mon 06:18:00 AM 60.1096 24.5831 296° West  Level Estimated
Mon 06:19:00 AM 60.1608 24.3708 296° West  Level Estimated
Mon 06:20:00 AM 60.2116 24.1578 296° West  Level Estimated
Mon 06:21:00 AM 60.2621 23.9441 296° West  Level Estimated
Mon 06:22:00 AM 60.3123 23.7298 295° West  Level Estimated
Mon 06:23:00 AM 60.3621 23.5148 295° West  Level Estimated
Mon 06:24:00 AM 60.4115 23.2992 295° West  Level Estimated
Mon 06:25:00 AM 60.4607 23.0829 295° West  Level Estimated
Mon 06:26:00 AM 60.5094 22.8659 295° West  Level Estimated
Mon 06:27:00 AM 60.5578 22.6484 294° West  Level Estimated
Mon 06:28:00 AM 60.6059 22.4301 294° West  Level Estimated
Mon 06:29:00 AM 60.6535 22.2112 294° West  Level Estimated
Mon 06:30:00 AM 60.7009 21.9917 294° West  Level Estimated
Mon 06:31:00 AM 60.7479 21.7715 294° West  Level Estimated
Mon 06:32:00 AM 60.7945 21.5507 293° West  Level Estimated
Mon 06:33:00 AM 60.8407 21.3292 293° West  Level Estimated
Mon 06:34:00 AM 60.8866 21.1071 293° West  Level Estimated
Mon 06:35:00 AM 60.9321 20.8844 293° West  Level Estimated
Mon 06:36:00 AM 60.9773 20.6610 293° West  Level Estimated
Mon 06:37:00 AM 61.0220 20.4370 293° West  Level Estimated
Mon 06:38:00 AM 61.0664 20.2124 292° West  Level Estimated
Mon 06:39:00 AM 61.1105 19.9871 292° West  Level Estimated
Mon 06:40:00 AM 61.1541 19.7612 292° West  Level Estimated
Mon 06:41:00 AM 61.1974 19.5347 292° West  Level Estimated
Mon 06:42:00 AM 61.2403 19.3076 292° West  Level Estimated
Mon 06:43:00 AM 61.2828 19.0798 291° West  Level Estimated
Mon 06:44:00 AM 61.3250 18.8514 291° West  Level Estimated
Mon 06:45:00 AM 61.3667 18.6225 291° West  Level Estimated
Mon 06:46:00 AM 61.4081 18.3929 291° West  Level Estimated
Mon 06:47:00 AM 61.4491 18.1627 291° West  Level Estimated
Mon 06:48:00 AM 61.4897 17.9319 290° West  Level Estimated
Mon 06:49:00 AM 61.5299 17.7005 290° West  Level Estimated
Mon 06:50:00 AM 61.5697 17.4685 290° West  Level Estimated
Mon 06:51:00 AM 61.6091 17.2359 290° West  Level Estimated
Mon 06:52:00 AM 61.6481 17.0027 290° West  Level Estimated
Mon 06:53:00 AM 61.6867 16.7689 289° West  Level Estimated
Mon 06:54:00 AM 61.7249 16.5346 289° West  Level Estimated
Mon 06:55:00 AM 61.7627 16.2997 289° West  Level Estimated
Mon 06:56:00 AM 61.8002 16.0642 289° West  Level Estimated
Mon 06:57:00 AM 61.8372 15.8281 288° West  Level Estimated
Mon 06:58:00 AM 61.8738 15.5915 288° West  Level Estimated
Mon 06:59:00 AM 61.9100 15.3543 288° West  Level Estimated
Mon 07:00:00 AM 61.9458 15.1165 288° West  Level Estimated
Mon 07:01:00 AM 61.9811 14.8782 288° West  Level Estimated
Mon 07:02:00 AM 62.0161 14.6393 287° West  Level Estimated
Mon 07:03:00 AM 62.0507 14.3999 287° West  Level Estimated
Mon 07:04:00 AM 62.0848 14.1599 287° West  Level Estimated
Mon 07:05:00 AM 62.1185 13.9194 287° West  Level Estimated
Mon 07:06:00 AM 62.1518 13.6784 287° West  Level Estimated
Mon 07:07:00 AM 62.1847 13.4369 286° West  Level Estimated
Mon 07:08:00 AM 62.2172 13.1948 286° West  Level Estimated
Mon 07:09:00 AM 62.2492 12.9522 286° West  Level Estimated
Mon 07:10:00 AM 62.2808 12.7091 286° West  Level Estimated
Mon 07:11:00 AM 62.3120 12.4655 286° West  Level Estimated
Mon 07:12:00 AM 62.3428 12.2214 285° West  Level Estimated
Mon 07:13:00 AM 62.3731 11.9768 285° West  Level Estimated
Mon 07:14:00 AM 62.4030 11.7317 285° West  Level Estimated
Mon 07:15:00 AM 62.4325 11.4861 285° West  Level Estimated
Mon 07:16:00 AM 62.4615 11.2400 284° West  Level Estimated
Mon 07:17:00 AM 62.4901 10.9935 284° West  Level Estimated
Mon 07:18:00 AM 62.5183 10.7464 284° West  Level Estimated
Mon 07:19:00 AM 62.5460 10.4990 284° West  Level Estimated
Mon 07:20:00 AM 62.5733 10.2510 284° West  Level Estimated
Mon 07:21:00 AM 62.6002 10.0026 283° West  Level Estimated
Mon 07:22:00 AM 62.6266 9.7538 283° West  Level Estimated
Mon 07:23:00 AM 62.6525 9.5045 283° West  Level Estimated
Mon 07:24:00 AM 62.6781 9.2548 283° West  Level Estimated
Mon 07:25:00 AM 62.7032 9.0047 282° West  Level Estimated
Mon 07:26:00 AM 62.7278 8.7541 282° West  Level Estimated
Mon 07:27:00 AM 62.7520 8.5031 282° West  Level Estimated
Mon 07:28:00 AM 62.7757 8.2518 282° West  Level Estimated
Mon 07:29:00 AM 62.7990 8.0000 282° West  Level Estimated
Mon 07:30:00 AM 62.8219 7.7478 281° West  Level Estimated
Mon 07:31:00 AM 62.8443 7.4952 281° West  Level Estimated
Mon 07:32:00 AM 62.8662 7.2423 281° West  Level Estimated
Mon 07:33:00 AM 62.8877 6.9890 281° West  Level Estimated
Mon 07:34:00 AM 62.9087 6.7353 280° West  Level Estimated
Mon 07:35:00 AM 62.9293 6.4812 280° West  Level Estimated
Mon 07:36:00 AM 62.9494 6.2268 280° West  Level Estimated
Mon 07:37:00 AM 62.9691 5.9721 280° West  Level Estimated
Mon 07:38:00 AM 62.9883 5.7170 280° West  Level Estimated
Mon 07:39:00 AM 63.0070 5.4616 279° West  Level Estimated
Mon 07:40:00 AM 63.0253 5.2058 279° West  Level Estimated
Mon 07:41:00 AM 63.0431 4.9498 279° West  Level Estimated
Mon 07:42:00 AM 63.0605 4.6934 279° West  Level Estimated
Mon 07:43:00 AM 63.0774 4.4367 278° West  Level Estimated
Mon 07:44:00 AM 63.0938 4.1798 278° West  Level Estimated
Mon 07:45:00 AM 63.1097 3.9225 278° West  Level Estimated
Mon 07:46:00 AM 63.1252 3.6650 278° West  Level Estimated
Mon 07:47:00 AM 63.1403 3.4072 277° West  Level Estimated
Mon 07:48:00 AM 63.1548 3.1491 277° West  Level Estimated
Mon 07:49:00 AM 63.1689 2.8908 277° West  Level Estimated
Mon 07:50:00 AM 63.1825 2.6323 277° West  Level Estimated
Mon 07:51:00 AM 63.1957 2.3735 277° West  Level Estimated
Mon 07:52:00 AM 63.2084 2.1144 276° West  Level Estimated
Mon 07:53:00 AM 63.2206 1.8552 276° West  Level Estimated
Mon 07:54:00 AM 63.2323 1.5957 276° West  Level Estimated
Mon 07:55:00 AM 63.2436 1.3360 276° West  Level Estimated
Mon 07:56:00 AM 63.2544 1.0761 275° West  Level Estimated
Mon 07:57:00 AM 63.2647 0.8161 275° West  Level Estimated
Mon 07:58:00 AM 63.2745 0.5558 275° West  Level Estimated
Mon 07:59:00 AM 63.2839 0.2954 275° West  Level Estimated
Mon 08:00:00 AM 63.2928 0.0348 274° West  Level Estimated
Mon 08:01:00 AM 63.3012 -0.2259 274° West  Level Estimated
Mon 08:02:00 AM 63.3091 -0.4868 274° West  Level Estimated
Mon 08:03:00 AM 63.3166 -0.7479 274° West  Level Estimated
Mon 08:04:00 AM 63.3236 -1.0090 274° West  Level Estimated
Mon 08:05:00 AM 63.3301 -1.2703 273° West  Level Estimated
Mon 08:06:00 AM 63.3361 -1.5317 273° West  Level Estimated
Mon 08:07:00 AM 63.3416 -1.7932 273° West  Level Estimated
Mon 08:08:00 AM 63.3467 -2.0548 273° West  Level Estimated
Mon 08:09:00 AM 63.3513 -2.3165 272° West  Level Estimated
Mon 08:10:00 AM 63.3554 -2.5783 272° West  Level Estimated
Mon 08:11:00 AM 63.3590 -2.8401 272° West  Level Estimated
Mon 08:12:00 AM 63.3622 -3.1020 272° West  Level Estimated
Mon 08:13:00 AM 63.3649 -3.3640 271° West  Level Estimated
Mon 08:14:00 AM 63.3671 -3.6260 271° West  Level Estimated
Mon 08:15:00 AM 63.3688 -3.8880 271° West  Level Estimated
Mon 08:16:00 AM 63.3700 -4.1501 271° West  Level Estimated
Mon 08:17:00 AM 63.3707 -4.4121 270° West  Level Estimated
Mon 08:18:00 AM 63.3710 -4.6742 270° West  Level Estimated
Mon 08:19:00 AM 63.3708 -4.9363 270° West  Level Estimated
Mon 08:20:00 AM 63.3701 -5.1984 270° West  Level Estimated
Mon 08:21:00 AM 63.3689 -5.4604 270° West  Level Estimated
Mon 08:22:00 AM 63.3673 -5.7225 269° West  Level Estimated
Mon 08:23:00 AM 63.3652 -5.9845 269° West  Level Estimated
Mon 08:24:00 AM 63.3625 -6.2464 269° West  Level Estimated
Mon 08:25:00 AM 63.3595 -6.5083 269° West  Level Estimated
Mon 08:26:00 AM 63.3559 -6.7702 268° West  Level Estimated
Mon 08:27:00 AM 63.3518 -7.0320 268° West  Level Estimated
Mon 08:28:00 AM 63.3473 -7.2937 268° West  Level Estimated
Mon 08:29:00 AM 63.3423 -7.5553 268° West  Level Estimated
Mon 08:30:00 AM 63.3368 -7.8168 267° West  Level Estimated
Mon 08:31:00 AM 63.3308 -8.0782 267° West  Level Estimated
Mon 08:32:00 AM 63.3244 -8.3395 267° West  Level Estimated
Mon 08:33:00 AM 63.3175 -8.6007 267° West  Level Estimated
Mon 08:34:00 AM 63.3101 -8.8617 267° West  Level Estimated
Mon 08:35:00 AM 63.3022 -9.1226 266° West  Level Estimated
Mon 08:36:00 AM 63.2938 -9.3834 266° West  Level Estimated
Mon 08:37:00 AM 63.2850 -9.6440 266° West  Level Estimated
Mon 08:38:00 AM 63.2757 -9.9045 266° West  Level Estimated
Mon 08:39:00 AM 63.2659 -10.1647 265° West  Level Estimated
Mon 08:40:00 AM 63.2557 -10.4248 265° West  Level Estimated
Mon 08:41:00 AM 63.2450 -10.6847 265° West  Level Estimated
Mon 08:42:00 AM 63.2337 -10.9444 265° West  Level Estimated
Mon 08:43:00 AM 63.2221 -11.2039 264° West  Level Estimated
Mon 08:44:00 AM 63.2099 -11.4632 264° West  Level Estimated
Mon 08:45:00 AM 63.1973 -11.7223 264° West  Level Estimated
Mon 08:46:00 AM 63.1842 -11.9811 264° West  Level Estimated
Mon 08:47:00 AM 63.1707 -12.2397 263° West  Level Estimated
Mon 08:48:00 AM 63.1566 -12.4980 263° West  Level Estimated
Mon 08:49:00 AM 63.1421 -12.7561 263° West  Level Estimated
Mon 08:50:00 AM 63.1272 -13.0140 263° West  Level Estimated
Mon 08:51:00 AM 63.1117 -13.2715 263° West  Level Estimated
Mon 08:52:00 AM 63.0958 -13.5288 262° West  Level Estimated
Mon 08:53:00 AM 63.0795 -13.7858 262° West  Level Estimated
Mon 08:54:00 AM 63.0626 -14.0425 262° West  Level Estimated
Mon 08:55:00 AM 63.0453 -14.2989 262° West  Level Estimated
Mon 08:56:00 AM 63.0276 -14.5550 261° West  Level Estimated
Mon 08:57:00 AM 63.0094 -14.8108 261° West  Level Estimated
Mon 08:58:00 AM 62.9907 -15.0663 261° West  Level Estimated
Mon 08:59:00 AM 62.9715 -15.3214 261° West  Level Estimated
Mon 09:00:00 AM 62.9519 -15.5762 261° West  Level Estimated
Mon 09:01:00 AM 62.9319 -15.8306 260° West  Level Estimated
Mon 09:02:00 AM 62.9114 -16.0847 260° West  Level Estimated
Mon 09:03:00 AM 62.8904 -16.3385 260° West  Level Estimated
Mon 09:04:00 AM 62.8689 -16.5918 260° West  Level Estimated
Mon 09:05:00 AM 62.8471 -16.8448 259° West  Level Estimated
Mon 09:06:00 AM 62.8247 -17.0974 259° West  Level Estimated
Mon 09:07:00 AM 62.8019 -17.3497 259° West  Level Estimated
Mon 09:08:00 AM 62.7787 -17.6015 259° West  Level Estimated
Mon 09:09:00 AM 62.7550 -17.8529 258° West  Level Estimated
Mon 09:10:00 AM 62.7309 -18.1040 258° West  Level Estimated
Mon 09:11:00 AM 62.7063 -18.3546 258° West  Level Estimated
Mon 09:12:00 AM 62.6813 -18.6048 258° West  Level Estimated
Mon 09:13:00 AM 62.6558 -18.8545 258° West  Level Estimated
Mon 09:14:00 AM 62.6299 -19.1038 257° West  Level Estimated
Mon 09:15:00 AM 62.6035 -19.3527 257° West  Level Estimated
Mon 09:16:00 AM 62.5767 -19.6012 257° West  Level Estimated
Mon 09:17:00 AM 62.5495 -19.8492 257° West  Level Estimated
Mon 09:18:00 AM 62.5218 -20.0967 256° West  Level Estimated
Mon 09:19:00 AM 62.4937 -20.3438 256° West  Level Estimated
Mon 09:20:00 AM 62.4651 -20.5904 256° West  Level Estimated
Mon 09:21:00 AM 62.4362 -20.8365 256° West  Level Estimated
Mon 09:22:00 AM 62.4067 -21.0822 256° West  Level Estimated
Mon 09:23:00 AM 62.3769 -21.3274 255° West  Level Estimated
Mon 09:24:00 AM 62.3466 -21.5720 255° West  Level Estimated
Mon 09:25:00 AM 62.3159 -21.8162 255° West  Level Estimated
Mon 09:26:00 AM 62.2848 -22.0599 255° West  Level Estimated
Mon 09:27:00 AM 62.2532 -22.3030 255° West  Level Estimated
Mon 09:28:00 AM 62.2212 -22.5457 254° West  Level Estimated
Mon 09:29:00 AM 62.1888 -22.7878 254° West  Level Estimated
Mon 09:30:00 AM 62.1560 -23.0295 254° West  Level Estimated
Mon 09:31:00 AM 62.1227 -23.2706 254° West  Level Estimated
Mon 09:32:00 AM 62.0891 -23.5111 253° West  Level Estimated
Mon 09:33:00 AM 62.0550 -23.7511 253° West  Level Estimated
Mon 09:34:00 AM 62.0205 -23.9906 253° West  Level Estimated
Mon 09:35:00 AM 61.9856 -24.2296 253° West  Level Estimated
Mon 09:36:00 AM 61.9502 -24.4680 253° West  Level Estimated
Mon 09:37:00 AM 61.9145 -24.7058 252° West  Level Estimated
Mon 09:38:00 AM 61.8784 -24.9431 252° West  Level Estimated
Mon 09:39:00 AM 61.8418 -25.1798 252° West  Level Estimated
Mon 09:40:00 AM 61.8048 -25.4159 252° West  Level Estimated
Mon 09:41:00 AM 61.7675 -25.6515 252° West  Level Estimated
Mon 09:42:00 AM 61.7297 -25.8865 251° West  Level Estimated
Mon 09:43:00 AM 61.6916 -26.1209 251° West  Level Estimated
Mon 09:44:00 AM 61.6530 -26.3547 251° West  Level Estimated
Mon 09:45:00 AM 61.6140 -26.5880 251° West  Level Estimated
Mon 09:46:00 AM 61.5746 -26.8207 251° West  Level Estimated
Mon 09:47:00 AM 61.5349 -27.0527 250° West  Level Estimated
Mon 09:48:00 AM 61.4948 -27.2842 250° West  Level Estimated
Mon 09:49:00 AM 61.4542 -27.5151 250° West  Level Estimated
Mon 09:50:00 AM 61.4133 -27.7453 250° West  Level Estimated
Mon 09:51:00 AM 61.3720 -27.9750 250° West  Level Estimated
Mon 09:52:00 AM 61.3303 -28.2041 249° West  Level Estimated
Mon 09:53:00 AM 61.2882 -28.4325 249° West  Level Estimated
Mon 09:54:00 AM 61.2457 -28.6604 249° West  Level Estimated
Mon 09:55:00 AM 61.2029 -28.8876 249° West  Level Estimated
Mon 09:56:00 AM 61.1596 -29.1142 249° West  Level Estimated
Mon 09:57:00 AM 61.1160 -29.3401 248° West  Level Estimated
Mon 09:58:00 AM 61.0720 -29.5655 248° West  Level Estimated
Mon 09:59:00 AM 61.0277 -29.7902 248° West  Level Estimated
Mon 10:00:00 AM 60.9829 -30.0143 248° West  Level Estimated
Mon 10:01:00 AM 60.9378 -30.2377 248° West  Level Estimated
Mon 10:02:00 AM 60.8924 -30.4606 247° West  Level Estimated
Mon 10:03:00 AM 60.8465 -30.6827 247° West  Level Estimated
Mon 10:04:00 AM 60.8003 -30.9043 247° West  Level Estimated
Mon 10:05:00 AM 60.7538 -31.1252 247° West  Level Estimated
Mon 10:06:00 AM 60.7068 -31.3454 247° West  Level Estimated
Mon 10:07:00 AM 60.6595 -31.5651 246° West  Level Estimated
Mon 10:08:00 AM 60.6119 -31.7840 246° West  Level Estimated
Mon 10:09:00 AM 60.5639 -32.0023 246° West  Level Estimated
Mon 10:10:00 AM 60.5155 -32.2200 246° West  Level Estimated
Mon 10:11:00 AM 60.4668 -32.4370 246° West  Level Estimated
Mon 10:12:00 AM 60.4178 -32.6534 245° Southwest  Level Estimated
Mon 10:13:00 AM 60.3684 -32.8691 245° Southwest  Level Estimated
Mon 10:14:00 AM 60.3186 -33.0842 245° Southwest  Level Estimated
Mon 10:15:00 AM 60.2685 -33.2986 245° Southwest  Level Estimated
Mon 10:16:00 AM 60.2180 -33.5123 245° Southwest  Level Estimated
Mon 10:17:00 AM 60.1672 -33.7254 244° Southwest  Level Estimated
Mon 10:18:00 AM 60.1161 -33.9378 244° Southwest  Level Estimated
Mon 10:19:00 AM 60.0646 -34.1496 244° Southwest  Level Estimated
Mon 10:20:00 AM 60.0128 -34.3607 244° Southwest  Level Estimated
Mon 10:21:00 AM 59.9607 -34.5711 244° Southwest  Level Estimated
Mon 10:22:00 AM 59.9082 -34.7809 244° Southwest  Level Estimated
Mon 10:23:00 AM 59.8554 -34.9900 243° Southwest  Level Estimated
Mon 10:24:00 AM 59.8022 -35.1985 243° Southwest  Level Estimated
Mon 10:25:00 AM 59.7487 -35.4063 243° Southwest  Level Estimated
Mon 10:26:00 AM 59.6950 -35.6134 243° Southwest  Level Estimated
Mon 10:27:00 AM 59.6408 -35.8198 243° Southwest  Level Estimated
Mon 10:28:00 AM 59.5864 -36.0256 242° Southwest  Level Estimated
Mon 10:29:00 AM 59.5316 -36.2307 242° Southwest  Level Estimated
Mon 10:30:00 AM 59.4765 -36.4352 242° Southwest  Level Estimated
Mon 10:31:00 AM 59.4211 -36.6389 242° Southwest  Level Estimated
Mon 10:32:00 AM 59.3654 -36.8421 242° Southwest  Level Estimated
Mon 10:33:00 AM 59.3093 -37.0445 242° Southwest  Level Estimated
Mon 10:34:00 AM 59.2530 -37.2463 241° Southwest  Level Estimated
Mon 10:35:00 AM 59.1963 -37.4474 241° Southwest  Level Estimated
Mon 10:36:00 AM 59.1394 -37.6478 241° Southwest  Level Estimated
Mon 10:37:00 AM 59.0821 -37.8476 241° Southwest  Level Estimated
Mon 10:38:00 AM 59.0245 -38.0467 241° Southwest  Level Estimated
Mon 10:39:00 AM 58.9666 -38.2451 241° Southwest  Level Estimated
Mon 10:40:00 AM 58.9084 -38.4429 240° Southwest  Level Estimated
Mon 10:41:00 AM 58.8499 -38.6400 240° Southwest  Level Estimated
Mon 10:42:00 AM 58.7911 -38.8364 240° Southwest  Level Estimated
Mon 10:43:00 AM 58.7320 -39.0322 240° Southwest  Level Estimated
Mon 10:44:00 AM 58.6726 -39.2273 240° Southwest  Level Estimated
Mon 10:45:00 AM 58.6130 -39.4218 240° Southwest  Level Estimated
Mon 10:46:00 AM 58.5530 -39.6155 239° Southwest  Level Estimated
Mon 10:47:00 AM 58.4927 -39.8087 239° Southwest  Level Estimated
Mon 10:48:00 AM 58.4322 -40.0011 239° Southwest  Level Estimated
Mon 10:49:00 AM 58.3713 -40.1929 239° Southwest  Level Estimated
Mon 10:50:00 AM 58.3102 -40.3840 239° Southwest  Level Estimated
Mon 10:51:00 AM 58.2488 -40.5745 239° Southwest  Level Estimated
Mon 10:52:00 AM 58.1871 -40.7643 238° Southwest  Level Estimated
Mon 10:53:00 AM 58.1251 -40.9534 238° Southwest  Level Estimated
Mon 10:54:00 AM 58.0629 -41.1419 238° Southwest  Level Estimated
Mon 10:55:00 AM 58.0004 -41.3297 238° Southwest  Level Estimated
Mon 10:56:00 AM 57.9375 -41.5169 238° Southwest  Level Estimated
Mon 10:57:00 AM 57.8745 -41.7034 238° Southwest  Level Estimated
Mon 10:58:00 AM 57.8111 -41.8893 237° Southwest  Level Estimated
Mon 10:59:00 AM 57.7475 -42.0745 237° Southwest  Level Estimated
Mon 11:00:00 AM 57.6836 -42.2591 237° Southwest  Level Estimated
Mon 11:01:00 AM 57.6194 -42.4430 237° Southwest  Level Estimated
Mon 11:02:00 AM 57.5550 -42.6262 237° Southwest  Level Estimated
Mon 11:03:00 AM 57.4903 -42.8088 237° Southwest  Level Estimated
Mon 11:04:00 AM 57.4254 -42.9908 237° Southwest  Level Estimated
Mon 11:05:00 AM 57.3602 -43.1721 236° Southwest  Level Estimated
Mon 11:06:00 AM 57.2947 -43.3528 236° Southwest  Level Estimated
Mon 11:07:00 AM 57.2290 -43.5328 236° Southwest  Level Estimated
Mon 11:08:00 AM 57.1630 -43.7122 236° Southwest  Level Estimated
Mon 11:09:00 AM 57.0967 -43.8909 236° Southwest  Level Estimated
Mon 11:10:00 AM 57.0302 -44.0690 236° Southwest  Level Estimated
Mon 11:11:00 AM 56.9635 -44.2465 235° Southwest  Level Estimated
Mon 11:12:00 AM 56.8965 -44.4234 235° Southwest  Level Estimated
Mon 11:13:00 AM 56.8292 -44.5995 235° Southwest  Level Estimated
Mon 11:14:00 AM 56.7617 -44.7751 235° Southwest  Level Estimated
Mon 11:15:00 AM 56.6940 -44.9501 235° Southwest  Level Estimated
Mon 11:16:00 AM 56.6260 -45.1244 235° Southwest  Level Estimated
Mon 11:17:00 AM 56.5578 -45.2980 235° Southwest  Level Estimated
Mon 11:18:00 AM 56.4893 -45.4711 234° Southwest  Level Estimated
Mon 11:19:00 AM 56.4206 -45.6435 234° Southwest  Level Estimated
Mon 11:20:00 AM 56.3517 -45.8153 234° Southwest  Level Estimated
Mon 11:21:00 AM 56.2825 -45.9865 234° Southwest  Level Estimated
Mon 11:22:00 AM 56.2131 -46.1571 234° Southwest  Level Estimated
Mon 11:23:00 AM 56.1434 -46.3270 234° Southwest  Level Estimated
Mon 11:24:00 AM 56.0735 -46.4963 234° Southwest  Level Estimated
Mon 11:25:00 AM 56.0034 -46.6651 233° Southwest  Level Estimated
Mon 11:26:00 AM 55.9331 -46.8332 233° Southwest  Level Estimated
Mon 11:27:00 AM 55.8625 -47.0006 233° Southwest  Level Estimated
Mon 11:28:00 AM 55.7917 -47.1675 233° Southwest  Level Estimated
Mon 11:29:00 AM 55.7207 -47.3338 233° Southwest  Level Estimated
Mon 11:30:00 AM 55.6494 -47.4995 233° Southwest  Level Estimated
Mon 11:31:00 AM 55.5779 -47.6646 233° Southwest  Level Estimated
Mon 11:32:00 AM 55.5062 -47.8290 232° Southwest  Level Estimated
Mon 11:33:00 AM 55.4343 -47.9929 232° Southwest  Level Estimated
Mon 11:34:00 AM 55.3622 -48.1562 232° Southwest  Level Estimated
Mon 11:35:00 AM 55.2899 -48.3189 232° Southwest  Level Estimated
Mon 11:36:00 AM 55.2173 -48.4809 232° Southwest  Level Estimated
Mon 11:37:00 AM 55.1445 -48.6424 232° Southwest  Level Estimated
Mon 11:38:00 AM 55.0715 -48.8033 232° Southwest  Level Estimated
Mon 11:39:00 AM 54.9983 -48.9637 232° Southwest  Level Estimated
Mon 11:40:00 AM 54.9249 -49.1234 231° Southwest  Level Estimated
Mon 11:41:00 AM 54.8513 -49.2826 231° Southwest  Level Estimated
Mon 11:42:00 AM 54.7775 -49.4411 231° Southwest  Level Estimated
Mon 11:43:00 AM 54.7034 -49.5991 231° Southwest  Level Estimated
Mon 11:44:00 AM 54.6292 -49.7565 231° Southwest  Level Estimated
Mon 11:45:00 AM 54.5548 -49.9134 231° Southwest  Level Estimated
Mon 11:46:00 AM 54.4801 -50.0696 231° Southwest  Level Estimated
Mon 11:47:00 AM 54.4053 -50.2253 230° Southwest  Level Estimated
Mon 11:48:00 AM 54.3302 -50.3805 230° Southwest  Level Estimated
Mon 11:49:00 AM 54.2550 -50.5350 230° Southwest  Level Estimated
Mon 11:50:00 AM 54.1796 -50.6890 230° Southwest  Level Estimated
Mon 11:51:00 AM 54.1039 -50.8425 230° Southwest  Level Estimated
Mon 11:52:00 AM 54.0281 -50.9954 230° Southwest  Level Estimated
Mon 11:53:00 AM 53.9521 -51.1477 230° Southwest  Level Estimated
Mon 11:54:00 AM 53.8759 -51.2995 230° Southwest  Level Estimated
Mon 11:54:34 AM 63.3333 -56.1167 229° Southwest 340 391 36,000  Level Gander Center
Mon 11:55:00 AM 53.7995 -51.4507 229° Southwest  Level Estimated
Mon 11:55:34 AM 63.2667 -56.3500 238° Southwest 440 506 36,000  Level Gander Center
Mon 11:56:00 AM 53.7224 -51.6022 229° Southwest  Level Estimated
Mon 11:56:34 AM 63.2000 -56.5833 238° Southwest 430 495 36,000  Level Gander Center
Mon 11:57:00 AM 53.6452 -51.7533 229° Southwest  Level Estimated
Mon 11:57:34 AM 63.1167 -56.7833 227° Southwest 440 506 36,000  Level Gander Center
Mon 11:58:00 AM 53.5677 -51.9037 229° Southwest  Level Estimated
Mon 11:58:34 AM 63.0333 -56.9667 225° Southwest 440 506 36,000  Level Gander Center
Mon 11:59:00 AM 53.4901 -52.0536 229° Southwest  Level Estimated
Mon 11:59:34 AM 62.9667 -57.2000 238° Southwest 440 506 36,000  Level Gander Center
Mon 12:00:34 PM 62.8833 -57.4000 228° Southwest 440 506 36,000  Level Gander Center
Mon 12:01:34 PM 62.8167 -57.5833 232° Southwest 440 506 36,000  Level Gander Center
Mon 12:03:12 PM 62.6833 -57.8500 223° Southwest 440 506 36,000  Level Montreal Center
Mon 12:04:12 PM 62.6000 -58.0333 225° Southwest 430 495 36,000  Level Montreal Center
Mon 12:05:12 PM 62.5167 -58.2333 228° Southwest 430 495 36,000  Level Montreal Center
Mon 12:06:12 PM 62.4500 -58.4667 238° Southwest 440 506 36,000  Level Montreal Center
Mon 12:07:12 PM 62.3667 -58.6667 228° Southwest 440 506 36,000  Level Montreal Center
Mon 12:08:12 PM 62.3000 -58.8500 232° Southwest 430 495 36,000  Level Montreal Center
Mon 12:09:12 PM 62.2000 -59.0500 223° Southwest 440 506 36,000  Level Montreal Center
Mon 12:10:12 PM 62.1167 -59.2500 228° Southwest 440 506 36,000  Level Montreal Center
Mon 12:11:12 PM 62.0500 -59.4333 232° Southwest 440 506 36,000  Level Montreal Center
Mon 12:12:12 PM 61.9667 -59.6167 226° Southwest 430 495 36,000  Level Montreal Center
Mon 12:13:12 PM 61.8833 -59.8333 231° Southwest 440 506 36,000  Level Montreal Center
Mon 12:14:12 PM 61.7833 -60.0333 223° Southwest 440 506 36,000  Level Montreal Center
Mon 12:15:12 PM 61.7167 -60.2167 233° Southwest 440 506 36,000  Level Montreal Center
Mon 12:16:12 PM 61.6333 -60.4000 226° Southwest 430 495 36,000  Level Montreal Center
Mon 12:17:12 PM 61.5500 -60.5833 226° Southwest 440 506 36,000  Level Montreal Center
Mon 12:18:12 PM 61.4667 -60.8000 231° Southwest 450 518 36,000  Level Montreal Center
Mon 12:19:12 PM 61.3833 -60.9833 227° Southwest 450 518 36,000  Level Montreal Center
Mon 12:20:12 PM 61.3000 -61.1667 227° Southwest 450 518 36,000  Level Montreal Center
Mon 12:21:12 PM 61.2000 -61.3500 221° Southwest 450 518 36,000  Level Montreal Center
Mon 12:22:12 PM 61.1167 -61.5333 227° Southwest 450 518 36,000  Level Montreal Center
Mon 12:23:34 PM 61.0000 -61.9000 237° Southwest 450 518 36,000  Level Gander Center
Mon 12:24:34 PM 60.9167 -62.0667 224° Southwest 450 518 36,000  Level Gander Center
Mon 12:25:12 PM 60.8500 -62.1167 200° South 450 518 36,000  Level Montreal Center
Mon 12:26:34 PM 60.7333 -62.4333 233° Southwest 460 529 36,000  Level Gander Center
Mon 12:27:34 PM 60.6500 -62.6333 230° Southwest 460 529 36,000  Level Gander Center
Mon 12:28:12 PM 60.5833 -62.6667 194° South 450 518 36,000  Level Montreal Center
Mon 12:29:12 PM 60.5000 -62.8833 232° Southwest 450 518 36,000  Level Montreal Center
Mon 12:30:12 PM 60.4167 -63.0500 225° Southwest 440 506 36,000  Level Montreal Center
Mon 12:31:12 PM 60.3333 -63.2167 225° Southwest 440 506 36,000  Level Montreal Center
Mon 12:32:12 PM 60.2500 -63.4000 228° Southwest 440 506 36,000  Level Montreal Center
Mon 12:33:12 PM 60.1667 -63.6000 230° Southwest 440 506 36,000  Level Montreal Center
Mon 12:34:12 PM 60.0667 -63.7667 220° Southwest 440 506 36,000  Level Montreal Center
Mon 12:35:12 PM 59.9833 -63.9333 225° Southwest 440 506 36,000  Level Montreal Center
Mon 12:36:12 PM 59.9000 -64.1000 225° Southwest 440 506 36,000  Level Montreal Center
Mon 12:37:12 PM 59.8167 -64.2667 225° Southwest 450 518 36,000  Level Montreal Center
Mon 12:38:12 PM 59.7167 -64.4667 225° Southwest 450 518 36,000  Level Montreal Center
Mon 12:39:12 PM 59.6167 -64.6333 220° Southwest 450 518 36,000  Level Montreal Center
Mon 12:40:12 PM 59.5333 -64.8000 225° Southwest 450 518 36,000  Level Montreal Center
Mon 12:41:12 PM 59.4500 -64.9500 222° Southwest 450 518 36,000  Level Montreal Center
Mon 12:42:12 PM 59.3667 -65.1167 226° Southwest 450 518 36,000  Level Montreal Center
Mon 12:43:12 PM 59.2667 -65.3167 226° Southwest 450 518 36,000  Level Montreal Center
Mon 12:44:12 PM 59.1833 -65.4667 223° Southwest 450 518 36,000  Level Montreal Center
Mon 12:45:12 PM 59.0833 -65.6667 226° Southwest 450 518 36,000  Level Montreal Center
Mon 12:46:12 PM 58.9667 -65.8333 216° Southwest 450 518 36,000  Level Montreal Center
Mon 12:47:12 PM 58.8833 -65.9833 223° Southwest 450 518 36,000  Level Montreal Center
Mon 12:48:12 PM 58.8000 -66.1333 223° Southwest 450 518 36,000  Level Montreal Center
Mon 12:49:12 PM 58.7000 -66.3000 221° Southwest 450 518 36,000  Level Montreal Center
Mon 12:50:12 PM 58.6167 -66.4833 229° Southwest 450 518 36,000  Level Montreal Center
Mon 12:51:12 PM 58.5333 -66.6333 223° Southwest 450 518 36,000  Level Montreal Center
Mon 12:52:12 PM 58.4167 -66.8000 217° Southwest 450 518 36,000  Level Montreal Center
Mon 12:53:12 PM 58.3333 -66.9500 223° Southwest 450 518 36,000  Level Montreal Center
Mon 12:54:12 PM 58.2333 -67.1333 224° Southwest 460 529 36,000  Level Montreal Center
Mon 12:55:12 PM 58.1500 -67.2833 224° Southwest 460 529 36,000  Level Montreal Center
Mon 12:56:12 PM 58.0333 -67.4333 214° Southwest 460 529 36,000  Level Montreal Center
Mon 12:57:12 PM 57.9500 -67.6167 229° Southwest 460 529 36,000  Level Montreal Center
Mon 12:58:12 PM 57.8667 -67.7667 224° Southwest 460 529 36,000  Level Montreal Center
Mon 12:59:12 PM 57.7667 -67.9000 215° Southwest 450 518 36,000  Level Montreal Center
Mon 01:00:12 PM 57.6667 -68.0500 219° Southwest 450 518 36,000  Level Montreal Center
Mon 01:01:12 PM 57.5667 -68.2333 225° Southwest 450 518 36,000  Level Montreal Center
Mon 01:02:12 PM 57.4667 -68.3833 219° Southwest 450 518 36,000  Level Montreal Center
Mon 01:03:12 PM 57.3833 -68.5167 221° Southwest 450 518 36,000  Level Montreal Center
Mon 01:04:12 PM 57.2667 -68.7000 220° Southwest 450 518 36,000  Level Montreal Center
Mon 01:05:12 PM 57.1833 -68.8500 224° Southwest 460 529 36,000  Level Montreal Center
Mon 01:06:12 PM 57.0833 -68.9833 216° Southwest 460 529 36,000  Level Montreal Center
Mon 01:07:12 PM 57.0000 -69.1667 230° Southwest 460 529 36,000  Level Montreal Center
Mon 01:08:12 PM 56.8833 -69.3000 212° Southwest 460 529 36,000  Level Montreal Center
Mon 01:09:12 PM 56.7833 -69.4500 219° Southwest 460 529 36,000  Level Montreal Center
Mon 01:10:12 PM 56.7000 -69.6167 228° Southwest 460 529 36,000  Level Montreal Center
Mon 01:11:12 PM 56.6000 -69.7500 216° Southwest 460 529 36,000  Level Montreal Center
Mon 01:12:12 PM 56.5000 -69.8833 216° Southwest 460 529 36,000  Level Montreal Center
Mon 01:13:12 PM 56.4000 -70.0500 223° Southwest 460 529 36,000  Level Montreal Center
Mon 01:14:12 PM 56.3000 -70.2000 220° Southwest 460 529 36,000  Level Montreal Center
Mon 01:15:12 PM 56.2167 -70.3667 228° Southwest 460 529 36,000  Level Montreal Center
Mon 01:16:12 PM 56.1000 -70.5000 213° Southwest 460 529 36,000  Level Montreal Center
Mon 01:17:12 PM 56.0000 -70.6333 217° Southwest 460 529 36,000  Level Montreal Center
Mon 01:18:12 PM 55.9167 -70.8000 228° Southwest 450 518 36,000  Level Montreal Center
Mon 01:19:12 PM 55.8000 -70.9333 213° Southwest 450 518 36,000  Level Montreal Center
Mon 01:20:12 PM 55.7000 -71.0667 217° Southwest 450 518 36,000  Level Montreal Center
Mon 01:21:12 PM 55.6000 -71.2000 217° Southwest 460 529 36,000  Level Montreal Center
Mon 01:22:12 PM 55.4833 -71.3167 210° Southwest 450 518 36,000  Level Montreal Center
Mon 01:23:12 PM 55.4000 -71.4833 229° Southwest 460 529 36,000  Level Montreal Center
Mon 01:24:12 PM 55.3000 -71.6167 217° Southwest 450 518 36,000  Level Montreal Center
Mon 01:25:12 PM 55.2000 -71.7500 217° Southwest 450 518 36,000  Level Montreal Center
Mon 01:26:12 PM 55.1000 -71.8667 214° Southwest 450 518 36,000  Level Montreal Center
Mon 01:27:12 PM 55.0167 -72.0333 229° Southwest 450 518 36,000  Level Montreal Center
Mon 01:28:12 PM 54.9000 -72.1500 210° Southwest 450 518 36,000  Level Montreal Center
Mon 01:29:12 PM 54.8000 -72.2833 218° Southwest 450 518 36,000  Level Montreal Center
Mon 01:30:12 PM 54.7000 -72.4333 221° Southwest 450 518 36,000  Level Montreal Center
Mon 01:31:12 PM 54.6000 -72.5667 218° Southwest 450 518 36,000  Level Montreal Center
Mon 01:32:12 PM 54.4833 -72.6833 210° Southwest 450 518 36,000  Level Montreal Center
Mon 01:33:12 PM 54.4000 -72.8167 223° Southwest 450 518 36,000  Level Montreal Center
Mon 01:34:12 PM 54.3000 -72.9667 221° Southwest 450 518 36,000  Level Montreal Center
Mon 01:35:12 PM 54.2000 -73.0833 214° Southwest 450 518 36,000  Level Montreal Center
Mon 01:36:12 PM 54.1000 -73.2000 214° Southwest 450 518 36,000  Level Montreal Center
Mon 01:37:12 PM 54.0000 -73.3333 218° Southwest 450 518 36,000  Level Montreal Center
Mon 01:38:12 PM 53.8833 -73.4833 217° Southwest 450 518 36,000  Level Montreal Center
Mon 01:39:12 PM 53.7833 -73.6000 215° Southwest 450 518 36,000  Level Montreal Center
Mon 01:40:12 PM 53.6667 -73.7167 211° Southwest 460 529 36,000  Level Montreal Center
Mon 01:41:12 PM 53.5500 -73.8167 207° Southwest 460 529 36,000  Level Montreal Center
Mon 01:42:12 PM 53.4333 -73.9333 211° Southwest 460 529 36,000  Level Montreal Center
Mon 01:43:12 PM 53.3167 -74.0167 203° Southwest 470 541 36,000  Level Montreal Center
Mon 01:44:12 PM 53.2000 -74.1000 203° Southwest 470 541 36,000  Level Montreal Center
Mon 01:45:12 PM 53.0833 -74.2000 207° Southwest 460 529 36,000  Level Montreal Center
Mon 01:46:12 PM 52.9667 -74.3167 211° Southwest 460 529 36,000  Level Montreal Center
Mon 01:47:12 PM 52.8833 -74.4000 211° Southwest 460 529 36,000  Level Montreal Center
Mon 01:48:12 PM 52.7667 -74.4833 203° Southwest 460 529 36,000  Level Montreal Center
Mon 01:49:12 PM 52.6500 -74.5833 207° Southwest 450 518 36,000  Level Montreal Center
Mon 01:50:12 PM 52.5167 -74.7000 208° Southwest 460 529 36,000  Level Montreal Center
Mon 01:51:12 PM 52.4000 -74.7833 204° Southwest 450 518 36,000  Level Montreal Center
Mon 01:52:12 PM 52.2833 -74.8667 204° Southwest 440 506 36,000  Level Montreal Center
Mon 01:53:12 PM 52.1667 -74.9500 204° Southwest 460 529 36,000  Level Montreal Center
Mon 01:54:12 PM 52.0500 -75.0333 204° Southwest 460 529 36,000  Level Montreal Center
Mon 01:55:12 PM 51.9333 -75.1500 212° Southwest 460 529 36,000  Level Montreal Center
Mon 01:56:12 PM 51.8167 -75.2333 204° Southwest 460 529 36,000  Level Montreal Center
Mon 01:57:12 PM 51.7000 -75.3167 204° Southwest 460 529 36,000  Level Montreal Center
Mon 01:58:12 PM 51.5833 -75.4000 204° Southwest 460 529 36,000  Level Montreal Center
Mon 01:59:12 PM 51.4667 -75.5000 208° Southwest 460 529 36,000  Level Montreal Center
Mon 02:00:12 PM 51.3500 -75.5833 204° Southwest 460 529 36,000  Level Montreal Center
Mon 02:01:12 PM 51.2500 -75.6667 208° Southwest 460 529 36,000  Level Montreal Center
Mon 02:02:12 PM 51.1167 -75.7500 201° Southwest 460 529 36,000  Level Montreal Center
Mon 02:03:12 PM 51.0167 -75.8333 208° Southwest 460 529 36,000  Level Montreal Center
Mon 02:04:12 PM 50.8833 -75.9333 205° Southwest 460 529 36,000  Level Montreal Center
Mon 02:05:12 PM 50.7833 -76.0167 208° Southwest 460 529 36,000  Level Montreal Center
Mon 02:06:12 PM 50.6500 -76.1000 202° Southwest 460 529 36,000  Level Montreal Center
Mon 02:07:12 PM 50.5500 -76.1833 208° Southwest 460 529 36,000  Level Montreal Center
Mon 02:08:12 PM 50.4167 -76.2833 206° Southwest 460 529 36,000  Level Montreal Center
Mon 02:09:12 PM 50.3167 -76.3667 208° Southwest 460 529 36,000  Level Montreal Center
Mon 02:10:12 PM 50.2000 -76.4333 200° South 460 529 36,000  Level Montreal Center
Mon 02:11:12 PM 50.0667 -76.5167 202° Southwest 460 529 36,000  Level Montreal Center
Mon 02:12:12 PM 49.9500 -76.6000 205° Southwest 460 529 36,000  Level Montreal Center
Mon 02:13:12 PM 49.8333 -76.7000 209° Southwest 460 529 36,000  Level Montreal Center
Mon 02:14:12 PM 49.7167 -76.7667 200° South 460 529 36,000  Level Montreal Center
Mon 02:15:12 PM 49.6000 -76.8500 205° Southwest 470 541 36,000  Level Montreal Center
Mon 02:16:12 PM 49.4833 -76.9167 200° South 450 518 36,000  Level Montreal Center
Mon 02:17:12 PM 49.3667 -77.0167 209° Southwest 490 564 36,000  Level Montreal Center
Mon 02:18:12 PM 49.2500 -77.1000 205° Southwest 450 518 36,000  Level Montreal Center
Mon 02:19:12 PM 49.1333 -77.1667 201° Southwest 460 529 36,000  Level Montreal Center
Mon 02:20:12 PM 49.0167 -77.2500 205° Southwest 460 529 36,000  Level Montreal Center
Mon 02:21:12 PM 48.8833 -77.3500 206° Southwest 450 518 36,000  Level Montreal Center
Mon 02:22:12 PM 48.7833 -77.4167 204° Southwest 450 518 36,000  Level Montreal Center
Mon 02:23:12 PM 48.6667 -77.5000 205° Southwest 450 518 36,000  Level Montreal Center
Mon 02:24:12 PM 48.5500 -77.5667 201° Southwest 460 529 36,000  Level Montreal Center
Mon 02:25:12 PM 48.4333 -77.6333 201° Southwest 460 529 36,000  Level Montreal Center
Mon 02:26:12 PM 48.3167 -77.7333 210° Southwest 460 529 36,000  Level Montreal Center
Mon 02:27:12 PM 48.2000 -77.8000 201° Southwest 450 518 36,000  Level Montreal Center
Mon 02:28:12 PM 48.0833 -77.8833 206° Southwest 450 518 36,000  Level Montreal Center
Mon 02:29:12 PM 47.9500 -77.9500 199° South 460 529 36,000  Level Montreal Center
Mon 02:30:12 PM 47.8333 -78.0167 201° Southwest 460 529 36,000  Level Montreal Center
Mon 02:31:12 PM 47.7167 -78.0833 201° Southwest 460 529 36,000  Level Montreal Center
Mon 02:32:12 PM 47.6000 -78.1667 206° Southwest 460 529 36,000  Level Montreal Center
Mon 02:33:12 PM 47.4833 -78.2333 201° Southwest 460 529 36,000  Level Montreal Center
Mon 02:34:12 PM 47.3667 -78.3000 201° Southwest 460 529 36,000 -492 Level Montreal Center
Mon 02:35:14 PM 44.3000 -77.0833 164° South 490 564 35,000  Descending Montreal Center
Mon 02:36:06 PM 47.1167 -78.3833 343° North 460 529 36,000 536 Climbing Toronto Center
Mon 02:37:06 PM 47.0167 -78.4500 204° Southwest 460 529 36,000  Level Toronto Center
Mon 02:43:08 PM 46.2967 -78.8866 201° Southwest 469 540 36,000  Level FlightAware ADS-B (CYYZ)
Mon 02:43:48 PM 46.2160 -78.9307 201° Southwest 470 541 36,000  Level FlightAware ADS-B (CYYZ)
Mon 02:44:18 PM 46.1753 -78.9528 201° Southwest 470 541 36,000  Level FlightAware ADS-B (CYYZ)
Mon 02:44:49 PM 46.0929 -78.9975 201° Southwest 471 542 36,000  Level FlightAware ADS-B (CYYZ)
Mon 02:45:18 PM 46.0340 -79.0294 201° Southwest 471 542 36,000  Level FlightAware ADS-B (CYYZ)
Mon 02:45:49 PM 45.9720 -79.0628 201° Southwest 471 542 36,000  Level FlightAware ADS-B (CYYZ)
Mon 02:46:20 PM 45.9090 -79.0968 201° Southwest 471 542 36,000  Level FlightAware ADS-B (CYYZ)
Mon 02:46:48 PM 45.8500 -79.1286 201° Southwest 471 542 36,000  Level FlightAware ADS-B (CYYZ)
Mon 02:47:19 PM 45.7884 -79.1616 201° Southwest 471 542 36,000  Level FlightAware ADS-B (CYYZ)
Mon 02:47:48 PM 45.7307 -79.1925 201° Southwest 471 542 36,000  Level FlightAware ADS-B (CYYZ)
Mon 02:48:19 PM 45.6691 -79.2253 201° Southwest 470 541 36,000  Level FlightAware ADS-B (CYYZ)
Mon 02:48:48 PM 45.6071 -79.2583 201° Southwest 470 541 36,000  Level FlightAware ADS-B (CYYZ)
Mon 02:49:20 PM 45.5419 -79.2930 201° Southwest 473 544 36,000  Level FlightAware ADS-B (CYYZ)
Mon 02:49:49 PM 45.4817 -79.3249 201° Southwest 474 545 36,000  Level FlightAware ADS-B (CYYZ)
Mon 02:50:19 PM 45.4211 -79.3569 201° Southwest 473 544 36,000  Level FlightAware ADS-B (CYYZ)
Mon 02:50:49 PM 45.3592 -79.3896 201° Southwest 474 545 36,000  Level FlightAware ADS-B (CYYZ)
Mon 02:51:19 PM 45.2975 -79.4220 201° Southwest 474 545 36,000  Level FlightAware ADS-B (CYYZ)
Mon 02:51:49 PM 45.2356 -79.4546 201° Southwest 472 543 36,000  Level FlightAware ADS-B (CYYZ)
Mon 02:52:19 PM 45.1782 -79.4847 201° Southwest 471 542 36,000  Level FlightAware ADS-B (CYYZ)
Mon 02:52:49 PM 45.1213 -79.5144 201° Southwest 469 540 36,000  Level FlightAware ADS-B (CYYZ)
Mon 02:53:19 PM 45.0549 -79.5489 201° Southwest 470 541 36,000  Level FlightAware ADS-B (CYYZ)
Mon 02:53:49 PM 44.9952 -79.5800 201° Southwest 469 540 36,000  Level FlightAware ADS-B (CYYZ)
Mon 02:54:19 PM 44.9814 -79.5872 201° Southwest 469 540 36,000  Level FlightAware ADS-B (CYYZ)
Mon 02:56:06 PM 44.7224 -79.7211 201° Southwest 463 533 36,000  Level FlightAware ADS-B (CYYZ)
Mon 02:56:46 PM 44.6349 -79.7663 201° Southwest 471 542 36,000  Level FlightAware ADS-B (CYYZ)
Mon 02:57:44 PM 44.5261 -79.8412 213° Southwest 453 521 36,000  Level FlightAware ADS-B (CYYZ)
Mon 02:58:15 PM 44.4712 -79.8917 214° Southwest 451 519 36,000  Level FlightAware ADS-B (CYYZ)
Mon 02:58:44 PM 44.4195 -79.9395 214° Southwest 451 519 36,000  Level FlightAware ADS-B (CYYZ)
Mon 02:59:15 PM 44.3662 -79.9876 213° Southwest 451 519 36,000  Level FlightAware ADS-B (CYYZ)
Mon 02:59:44 PM 44.3171 -80.0317 213° Southwest 449 517 36,000  Level FlightAware ADS-B (CYYZ)
Mon 03:00:05 PM 44.2796 -80.0655 213° Southwest 450 518 36,000  Level FlightAware ADS-B (CYKF)
Mon 03:00:15 PM 44.2624 -80.0808 213° Southwest 452 520 36,000  Level FlightAware ADS-B (CYYZ)
Mon 03:00:44 PM 44.2092 -80.1284 213° Southwest 453 521 36,000  Level FlightAware ADS-B (CYYZ)
Mon 03:01:11 PM 44.1689 -80.1643 213° Southwest 454 522 36,000  Level FlightAware ADS-B (CYKF)
Mon 03:01:15 PM 44.1562 -80.1757 213° Southwest 455 524 36,000  Level FlightAware ADS-B (CYYZ)
Mon 03:01:45 PM 44.1033 -80.2228 213° Southwest 456 525 36,000  Level FlightAware ADS-B (CYYZ)
Mon 03:02:07 PM 44.1002 -80.2255 213° Southwest 456 525 36,000  Level FlightAware ADS-B (CYKF)
Mon 03:02:15 PM 44.0501 -80.2699 213° Southwest 456 525 36,000  Level FlightAware ADS-B (CYYZ)
Mon 03:02:45 PM 43.9995 -80.3146 213° Southwest 456 525 36,000  Level FlightAware ADS-B (CYYZ)
Mon 03:03:10 PM 43.9513 -80.3573 213° Southwest 455 524 36,000  Level FlightAware ADS-B (CYKF)
Mon 03:03:14 PM 43.9445 -80.3634 213° Southwest 456 525 36,000  Level FlightAware ADS-B (CYYZ)
Mon 03:03:45 PM 43.8908 -80.4107 213° Southwest 456 525 36,000  Level FlightAware ADS-B (CYYZ)
Mon 03:03:56 PM 43.8732 -80.4261 212° Southwest 456 525 36,000  Level FlightAware ADS-B (CYKF)
Mon 03:04:14 PM 43.8448 -80.4511 213° Southwest 457 526 36,000  Level FlightAware ADS-B (CYYZ)
Mon 03:04:27 PM 43.8237 -80.4696 212° Southwest 455 524 36,000  Level FlightAware ADS-B (CZBA)
Mon 03:04:45 PM 43.7979 -80.4922 213° Southwest 455 524 36,000  Level FlightAware ADS-B (CYYZ)
Mon 03:05:08 PM 43.7480 -80.5359 212° Southwest 453 521 36,000  Level FlightAware ADS-B (CYKF)
Mon 03:05:11 PM 43.7374 -80.5452 213° Southwest 454 522 36,000  Level FlightAware ADS-B (CYYZ)
Mon 03:05:43 PM 43.6805 -80.5949 213° Southwest 453 521 36,000  Level FlightAware ADS-B (CYYZ)
Mon 03:05:51 PM 43.6677 -80.6060 212° Southwest 451 519 36,000  Level FlightAware ADS-B (CZBA)
Mon 03:06:11 PM 43.6399 -80.6303 213° Southwest 452 520 36,000  Level FlightAware ADS-B (CYYZ)
Mon 03:06:42 PM 43.5788 -80.6835 213° Southwest 448 516 36,000 118 Level FlightAware ADS-B (CYYZ)
Mon 03:07:02 PM 43.5773 -80.6847 212° Southwest 445 512 36,100 194 Climbing FlightAware ADS-B (CYKF)
Mon 03:07:13 PM 43.5261 -80.7291 213° Southwest 445 512 36,100 638 Level FlightAware ADS-B (CYYZ)
Mon 03:07:49 PM 43.4838 -80.7660 213° Southwest 444 511 36,600 931 Climbing FlightAware ADS-B (CYYZ)
Mon 03:08:11 PM 43.4209 -80.8207 212° Southwest 453 521 37,000 1,200 Climbing FlightAware ADS-B (CYKF)
Mon 03:08:19 PM 43.4085 -80.8315 213° Southwest 455 524 37,200 1,421 Climbing FlightAware ADS-B (CYYZ)
Mon 03:08:49 PM 43.3533 -80.8790 213° Southwest 452 520 37,900 1,091 Climbing FlightAware ADS-B (CYYZ)
Mon 03:09:03 PM 43.3604 -80.8728 212° Southwest 451 519 38,000 150 Climbing FlightAware ADS-B (CYKF)
Mon 03:09:29 PM 43.2828 -80.9395 213° Southwest 457 526 38,000  Level FlightAware ADS-B (CYYZ)
Mon 03:09:59 PM 43.2309 -80.9840 213° Southwest 457 526 38,000  Level FlightAware ADS-B (CYYZ)
Mon 03:10:30 PM 43.1744 -81.0324 213° Southwest 453 521 38,000  Level FlightAware ADS-B (CYYZ)
Mon 03:11:00 PM 43.1218 -81.0774 213° Southwest 449 517 38,000  Level FlightAware ADS-B (CYYZ)
Mon 03:11:11 PM 43.1016 -81.0947 212° Southwest 448 516 38,000  Level FlightAware ADS-B (CYKF)
Mon 03:11:30 PM 43.0694 -81.1223 213° Southwest 449 517 38,000  Level FlightAware ADS-B (CYYZ)
Mon 03:11:59 PM 43.0139 -81.1626 205° Southwest 465 535 38,000  Level FlightAware ADS-B (CYYZ)
Mon 03:12:11 PM 43.0066 -81.1670 203° Southwest 468 539 38,000  Level FlightAware ADS-B (CYKF)
Mon 03:12:29 PM 42.9541 -81.1986 205° Southwest 467 537 38,000  Level FlightAware ADS-B (CYYZ)
Mon 03:12:59 PM 42.8955 -81.2364 206° Southwest 467 537 38,000  Level FlightAware ADS-B (CYYZ)
Mon 03:13:08 PM 42.8922 -81.2385 205° Southwest 466 536 38,000  Level FlightAware ADS-B (CYKF)
Mon 03:13:30 PM 42.8366 -81.2735 205° Southwest 470 541 38,000  Level FlightAware ADS-B (CYYZ)
Mon 03:14:25 PM 42.7258 -81.3310 200° South 476 548 38,000  Level FlightAware ADS-B (CYYZ)
Mon 03:14:55 PM 42.6662 -81.3602 201° Southwest 472 543 38,000  Level FlightAware ADS-B (CYYZ)
Mon 03:15:10 PM 42.6322 -81.3773 200° South 470 541 38,000  Level FlightAware ADS-B (CYKF)
Mon 03:15:25 PM 42.6100 -81.3884 201° Southwest 470 541 38,000  Level FlightAware ADS-B (CYYZ)
Mon 03:15:55 PM 42.5412 -81.4234 201° Southwest 470 541 38,000  Level FlightAware ADS-B (CYYZ)
Mon 03:16:25 PM 42.4806 -81.4543 201° Southwest 471 542 38,000  Level FlightAware ADS-B (CYYZ)
Mon 03:16:55 PM 42.4189 -81.4854 201° Southwest 470 541 38,000  Level FlightAware ADS-B (CYYZ)
Mon 03:17:24 PM 42.3611 -81.5145 201° Southwest 471 542 38,000  Level FlightAware ADS-B (CYYZ)
Mon 03:17:54 PM 42.2983 -81.5461 201° Southwest 471 542 38,000  Level FlightAware ADS-B (CYYZ)
Mon 03:18:25 PM 42.2381 -81.5763 201° Southwest 468 539 38,000  Level FlightAware ADS-B (CYYZ)
Mon 03:18:55 PM 42.1800 -81.6054 201° Southwest 465 535 38,000  Level FlightAware ADS-B (CYYZ)
Mon 03:19:24 PM 42.1170 -81.6368 201° Southwest 462 532 38,000  Level FlightAware ADS-B (CYYZ)
Mon 03:19:54 PM 42.0583 -81.6661 201° Southwest 460 529 38,000  Level FlightAware ADS-B (CYYZ)
Mon 03:20:25 PM 41.9973 -81.6965 201° Southwest 458 527 38,000  Level FlightAware ADS-B (CYYZ)
Mon 03:20:54 PM 41.9390 -81.7255 201° Southwest 456 525 38,000  Level FlightAware ADS-B (CYYZ)
Mon 03:21:24 PM 41.8790 -81.7553 201° Southwest 454 522 38,000  Level FlightAware ADS-B (CYYZ)
Mon 03:21:54 PM 41.8206 -81.7842 201° Southwest 453 521 38,000  Level FlightAware ADS-B (CYYZ)
Mon 03:22:25 PM 41.7634 -81.8125 201° Southwest 453 521 38,000  Level FlightAware ADS-B (CYYZ)
Mon 03:22:53 PM 41.7057 -81.8410 201° Southwest 453 521 38,000  Level FlightAware ADS-B (CYYZ)
Mon 03:23:24 PM 41.6437 -81.8717 201° Southwest 454 522 38,000  Level FlightAware ADS-B (CYYZ)
Mon 03:23:54 PM 41.5830 -81.9015 201° Southwest 454 522 38,000  Level FlightAware ADS-B (CYYZ)
Mon 03:24:24 PM 41.5242 -81.9304 201° Southwest 455 524 38,000  Level FlightAware ADS-B (CYYZ)
Mon 03:24:54 PM 41.4771 -81.9534 201° Southwest 457 526 38,000  Level FlightAware ADS-B (CYYZ)
Mon 03:25:23 PM 41.4129 -81.9848 201° Southwest 458 527 38,000  Level FlightAware ADS-B (CYYZ)
Mon 03:25:54 PM 41.3499 -82.0156 201° Southwest 459 528 38,000  Level FlightAware ADS-B (CYYZ)
Mon 03:26:29 PM 41.2989 -82.0408 201° Southwest 454 522 38,000  Level Cleveland Center
Mon 03:27:31 PM 41.1803 -82.0972 200° South 455 524 38,000  Level Cleveland Center
Mon 03:28:33 PM 41.0461 -82.1628 200° South 455 524 38,000  Level Cleveland Center
Mon 03:29:35 PM 40.9275 -82.2200 200° South 454 522 38,000  Level Cleveland Center
Mon 03:31:53 PM 40.6459 -82.3546 200° South 449 517 38,000  Level FlightAware ADS-B
Mon 03:36:00 PM 40.1517 -82.5774 192° South 470 541 38,000  Level FlightAware ADS-B
Mon 03:36:32 PM 40.0710 -82.5912 185° South 483 556 38,000  Level FlightAware ADS-B
Mon 03:37:16 PM 39.9733 -82.5992 184° South 484 557 38,000  Level FlightAware ADS-B
Mon 03:37:58 PM 39.8872 -82.6064 183° South 488 562 38,000  Level FlightAware ADS-B
Mon 03:38:40 PM 39.7847 -82.6134 183° South 490 564 38,000  Level FlightAware ADS-B
Mon 03:39:12 PM 39.7254 -82.6174 183° South 490 564 38,000  Level FlightAware ADS-B
Mon 03:39:43 PM 39.6425 -82.6229 183° South 489 563 38,000  Level FlightAware ADS-B
Mon 03:40:13 PM 39.5905 -82.6263 183° South 488 562 38,000  Level FlightAware ADS-B
Mon 03:40:43 PM 39.5113 -82.6317 183° South 489 563 38,000  Level FlightAware ADS-B
Mon 03:41:26 PM 39.4101 -82.6385 183° South 490 564 38,000  Level FlightAware ADS-B
Mon 03:41:56 PM 39.3421 -82.6430 183° South 490 564 38,000  Level FlightAware ADS-B
Mon 03:42:26 PM 39.2748 -82.6475 183° South 492 566 38,000  Level FlightAware ADS-B
Mon 03:42:57 PM 39.2032 -82.6522 183° South 491 565 38,000  Level FlightAware ADS-B
Mon 03:43:27 PM 39.1413 -82.6564 183° South 491 565 38,000  Level FlightAware ADS-B
Mon 03:43:57 PM 39.0741 -82.6608 183° South 492 566 38,000  Level FlightAware ADS-B
Mon 03:44:27 PM 38.9994 -82.6658 183° South 493 567 38,000  Level FlightAware ADS-B
Mon 03:45:08 PM 38.9186 -82.6712 183° South 495 570 38,000  Level FlightAware ADS-B
Mon 03:45:47 PM 38.8183 -82.6777 183° South 495 570 38,000  Level FlightAware ADS-B
Mon 03:46:28 PM 38.7398 -82.6829 183° South 494 568 38,000  Level FlightAware ADS-B
Mon 03:47:07 PM 38.6392 -82.6895 183° South 492 566 38,000  Level FlightAware ADS-B
Mon 03:47:48 PM 38.5600 -82.6950 183° South 489 563 38,000  Level Indianapolis Center
Mon 03:48:50 PM 38.4244 -82.7047 183° South 489 563 38,000  Level Indianapolis Center
Mon 03:49:52 PM 38.2900 -82.7131 183° South 489 563 38,000  Level Indianapolis Center
Mon 03:50:54 PM 38.1361 -82.7231 183° South 478 550 38,000  Level Indianapolis Center
Mon 03:51:56 PM 38.0058 -82.7325 183° South 471 542 38,000  Level Indianapolis Center
Mon 03:52:58 PM 37.8758 -82.7414 183° South 470 541 38,000  Level Indianapolis Center
Mon 03:54:00 PM 37.7461 -82.7497 183° South 469 540 38,000  Level Indianapolis Center
Mon 03:55:02 PM 37.6256 -82.7933 196° South 454 522 38,000  Level Indianapolis Center
Mon 03:56:04 PM 37.4975 -82.8714 206° Southwest 440 506 38,000  Level Indianapolis Center
Mon 03:57:06 PM 37.3886 -82.9433 208° Southwest 440 506 38,000  Level Indianapolis Center
Mon 03:58:08 PM 37.2797 -83.0150 208° Southwest 441 507 38,000  Level Indianapolis Center
Mon 03:59:10 PM 37.1711 -83.0861 208° Southwest 442 509 38,000  Level Indianapolis Center
Mon 04:00:13 PM 37.0444 -83.1675 207° Southwest 442 509 38,000  Level Indianapolis Center
Mon 04:01:15 PM 36.9358 -83.2381 207° Southwest 442 509 38,000  Level Indianapolis Center
Mon 04:02:17 PM 36.8261 -83.3083 207° Southwest 443 510 38,000  Level Indianapolis Center
Mon 04:03:19 PM 36.7153 -83.3800 207° Southwest 446 513 38,000  Level Indianapolis Center
Mon 04:04:21 PM 36.6050 -83.4492 207° Southwest 446 513 38,000  Level Indianapolis Center
Mon 04:05:23 PM 36.4919 -83.5211 207° Southwest 445 512 38,000  Level Indianapolis Center
Mon 04:06:25 PM 36.3600 -83.6056 207° Southwest 445 512 38,000  Level Indianapolis Center
Mon 04:07:27 PM 36.2492 -83.6750 207° Southwest 445 512 38,000  Level Indianapolis Center
Mon 04:08:29 PM 36.1392 -83.7461 208° Southwest 445 512 38,000  Level Indianapolis Center
Mon 04:09:22 PM 36.0517 -83.8025 208° Southwest 442 509 38,000 53 Level Atlanta Center
Mon 04:10:22 PM 35.9414 -83.8719 207° Southwest 442 509 38,100  Climbing Atlanta Center
Mon 04:16:15 PM 35.1776 -84.0708 191° South 462 532 38,000 -16 Descending FlightAware ADS-B (KDZJ)
Mon 04:16:47 PM 35.1111 -84.0868 191° South 461 531 38,000  Level FlightAware ADS-B (KDZJ)
Mon 04:17:35 PM 35.0093 -84.1110 191° South 461 531 38,000  Level FlightAware ADS-B (KDZJ)
Mon 04:18:14 PM 34.9289 -84.1301 191° South 461 531 38,000  Level FlightAware ADS-B (KDZJ)
Mon 04:18:52 PM 34.8477 -84.1496 191° South 461 531 38,000  Level FlightAware ADS-B (KDZJ)
Mon 04:19:31 PM 34.7683 -84.1686 191° South 460 529 38,000  Level FlightAware ADS-B (KDZJ)
Mon 04:20:16 PM 34.6728 -84.1909 191° South 458 527 38,000  Level FlightAware ADS-B (KDZJ)
Mon 04:20:49 PM 34.6037 -84.2074 191° South 457 526 38,000  Level FlightAware ADS-B (KDZJ)
Mon 04:21:34 PM 34.5122 -84.2290 191° South 456 525 38,000  Level FlightAware ADS-B (KDZJ)
Mon 04:22:14 PM 34.4285 -84.2487 191° South 446 513 38,000  Level FlightAware ADS-B (KDZJ)
Mon 04:22:56 PM 34.3413 -84.2693 191° South 455 524 38,000  Level FlightAware ADS-B (KDZJ)
Mon 04:23:36 PM 34.2592 -84.2885 191° South 455 524 38,000  Level FlightAware ADS-B (KDZJ)
Mon 04:24:17 PM 34.1754 -84.3081 191° South 447 514 38,000  Level FlightAware ADS-B (KDZJ)
Mon 04:24:56 PM 34.0941 -84.3272 191° South 446 513 38,000  Level FlightAware ADS-B (KDZJ)
Mon 04:25:37 PM 34.0103 -84.3466 191° South 455 524 38,000  Level FlightAware ADS-B (KDZJ)
Mon 04:26:15 PM 33.9313 -84.3650 191° South 445 512 38,000  Level FlightAware ADS-B (KDZJ)
Mon 04:27:22 PM 33.8125 -84.3939 191° South 456 525 38,000  Level Atlanta Center
Mon 04:28:22 PM 33.6956 -84.4208 191° South 444 511 38,000  Level Atlanta Center
Mon 04:29:22 PM 33.5703 -84.4378 186° South 449 517 38,000  Level Atlanta Center
Mon 04:30:22 PM 33.4472 -84.4347 179° South 444 511 38,000  Level Atlanta Center
Mon 04:31:22 PM 33.3219 -84.4317 179° South 438 504 38,000  Level Atlanta Center
Mon 04:32:22 PM 33.1967 -84.4311 180° South 443 510 38,000  Level Atlanta Center
Mon 04:33:22 PM 33.0714 -84.4281 179° South 443 510 38,000  Level Atlanta Center
Mon 04:34:22 PM 32.9442 -84.4275 180° South 455 524 38,000 -150 Level Atlanta Center
Mon 04:35:22 PM 32.8356 -84.4269 180° South 448 516 37,700 -400 Descending Atlanta Center
Mon 04:36:22 PM 32.7167 -84.4167 176° South 441 507 37,200 -350 Descending Atlanta Center
Mon 04:37:22 PM 32.5914 -84.4161 180° South 441 507 37,000 -100 Descending Atlanta Center
Mon 04:38:22 PM 32.4703 -84.4131 179° South 441 507 37,000 -150 Level Atlanta Center
Mon 04:39:22 PM 32.3533 -84.4125 180° South 435 501 36,700 -600 Descending Atlanta Center
Mon 04:40:22 PM 32.2303 -84.4097 179° South 435 501 35,800 -1,020 Descending Atlanta Center
Mon 04:41:55 PM 32.0386 -84.4047 179° South 429 494 34,100 -1,176 Descending Jacksonville Center
Mon 04:42:55 PM 31.9153 -84.4028 179° South 429 494 32,800 -1,350 Descending Jacksonville Center
Mon 04:43:55 PM 31.7922 -84.4008 179° South 440 506 31,400 -251 Descending Jacksonville Center
Mon 04:50:05 PM 30.9276 -84.3811 179° South 487 560 31,000 -58 Descending FlightAware ADS-B
Mon 04:50:52 PM 30.8308 -84.3791 179° South 476 548 31,000  Level FlightAware ADS-B
Mon 04:51:25 PM 30.7654 -84.3779 179° South 478 550 31,000  Level FlightAware ADS-B
Mon 04:52:05 PM 30.6637 -84.3720 173° South 482 555 31,000  Level FlightAware ADS-B
Mon 04:52:35 PM 30.5953 -84.3585 168° South 486 559 31,000  Level FlightAware ADS-B
Mon 04:53:05 PM 30.5303 -84.3380 162° South 493 567 31,000  Level FlightAware ADS-B
Mon 04:53:35 PM 30.4654 -84.3093 157° South 499 574 31,000  Level FlightAware ADS-B
Mon 04:54:10 PM 30.3938 -84.2670 150° Southeast 506 582 31,000  Level FlightAware ADS-B
Mon 04:54:45 PM 30.3210 -84.2194 151° Southeast 506 582 31,000  Level FlightAware ADS-B
Mon 04:55:55 PM 30.1956 -84.1422 151° Southeast 496 571 31,000  Level Jacksonville Center
Mon 04:56:55 PM 30.0733 -84.0592 150° Southeast 501 577 31,000  Level Jacksonville Center
Mon 04:57:55 PM 29.9508 -83.9808 151° Southeast 501 577 31,000  Level Jacksonville Center
Mon 04:58:55 PM 29.8303 -83.9031 151° Southeast 501 577 31,000  Level Jacksonville Center
Mon 04:59:55 PM 29.6953 -83.8156 151° Southeast 501 577 31,000  Level Jacksonville Center
Mon 05:00:55 PM 29.5747 -83.7378 151° Southeast 501 577 31,000  Level Jacksonville Center
Mon 05:01:55 PM 29.4542 -83.6606 151° Southeast 494 568 31,000  Level Jacksonville Center
Mon 05:02:55 PM 29.3294 -83.5811 151° Southeast 499 574 31,000  Level Jacksonville Center
Mon 05:03:55 PM 29.2044 -83.4992 150° Southeast 499 574 31,000  Level Jacksonville Center
Mon 05:09:46 PM 28.4604 -83.0286 151° Southeast 518 596 31,000  Level FlightAware ADS-B
Mon 05:10:23 PM 28.3816 -82.9793 151° Southeast 517 595 31,000  Level FlightAware ADS-B
Mon 05:11:33 PM 28.2412 -82.8915 151° Southeast 514 592 31,000  Level FlightAware ADS-B
Mon 05:12:33 PM 28.1109 -82.8104 151° Southeast 510 587 31,000  Level FlightAware ADS-B
Mon 05:13:24 PM 28.0078 -82.7463 151° Southeast 508 585 31,000  Level FlightAware ADS-B
Mon 05:14:31 PM 27.8682 -82.6594 150° Southeast 510 587 31,000  Level FlightAware ADS-B
Mon 05:15:04 PM 27.8015 -82.6141 149° Southeast 512 589 31,000  Level FlightAware ADS-B
Mon 05:15:44 PM 27.7266 -82.5634 149° Southeast 509 586 31,000  Level FlightAware ADS-B
Mon 05:16:15 PM 27.6578 -82.5175 149° Southeast 507 583 31,000  Level FlightAware ADS-B
Mon 05:16:47 PM 27.5899 -82.4816 158° South 495 570 31,000  Level FlightAware ADS-B
Mon 05:17:31 PM 27.4983 -82.4390 157° South 498 573 31,000  Level FlightAware ADS-B
Mon 05:18:42 PM 27.3407 -82.3940 164° South 491 565 31,000  Level FlightAware ADS-B
Mon 05:20:55 PM 27.0498 -82.3291 169° South 481 554 31,000  Level FlightAware ADS-B
Mon 05:21:35 PM 26.9673 -82.3108 169° South 479 551 31,000  Level FlightAware ADS-B
Mon 05:22:14 PM 26.8774 -82.2909 169° South 478 550 31,000  Level FlightAware ADS-B
Mon 05:23:08 PM 26.7772 -82.2688 169° South 479 551 31,000  Level FlightAware ADS-B
Mon 05:23:55 PM 26.6647 -82.2440 169° South 477 549 31,000  Level FlightAware ADS-B
Mon 05:24:25 PM 26.5929 -82.2282 169° South 477 549 31,000  Level FlightAware ADS-B
Mon 05:25:05 PM 26.5072 -82.2094 169° South 477 549 31,000  Level FlightAware ADS-B
Mon 05:25:44 PM 26.4222 -82.1907 169° South 476 548 31,000  Level FlightAware ADS-B
Mon 05:26:14 PM 26.3607 -82.1772 169° South 477 549 31,000  Level FlightAware ADS-B
Mon 05:26:54 PM 26.2763 -82.1588 169° South 479 551 31,000  Level FlightAware ADS-B
Mon 05:27:35 PM 26.1861 -82.1391 169° South 479 551 31,000  Level FlightAware ADS-B
Mon 05:28:07 PM 26.1105 -82.1226 169° South 478 550 31,000  Level FlightAware ADS-B
Mon 05:28:44 PM 26.0338 -82.1059 169° South 476 548 31,000  Level FlightAware ADS-B
Mon 05:29:15 PM 25.9631 -82.0904 169° South 475 547 31,000  Level FlightAware ADS-B
Mon 05:29:55 PM 25.8867 -82.0738 169° South 475 547 31,000  Level FlightAware ADS-B
Mon 05:30:43 PM 25.7747 -82.0496 169° South 474 545 31,000  Level FlightAware ADS-B
Mon 05:31:16 PM 25.7256 -82.0406 169° South 483 556 31,000  Level Miami Center
Mon 05:32:16 PM 25.5950 -82.0097 168° South 483 556 31,000  Level Miami Center
Mon 05:33:16 PM 25.4644 -81.9836 170° South 483 556 31,000  Level Miami Center
Mon 05:34:16 PM 25.3319 -81.9550 169° South 483 556 31,000  Level Miami Center
Mon 05:35:16 PM 25.2011 -81.9264 169° South 483 556 31,000  Level Miami Center
Mon 05:36:16 PM 25.0728 -81.9006 170° South 483 556 31,000  Level Miami Center
Mon 05:37:16 PM 24.9400 -81.8722 169° South 483 556 31,000  Level Miami Center
Mon 05:38:16 PM 24.8133 -81.8486 170° South 477 549 31,000  Level Miami Center
Mon 05:39:16 PM 24.6836 -81.8572 183° South 472 543 31,000  Level Miami Center
Mon 05:40:16 PM 24.5614 -81.8911 194° South 464 534 31,000  Level Miami Center
Mon 05:41:16 PM 24.4550 -81.9506 207° Southwest 439 505 31,000 -150 Level Miami Center
Mon 05:42:16 PM 24.3664 -82.0336 220° Southwest 425 489 30,700 -550 Descending Miami Center
Mon 05:43:16 PM 24.3006 -82.1267 232° Southwest 402 463 29,900 -800 Descending Miami Center
Mon 05:45:00 PM 24.1569 -82.2903 232° Southwest  Level FlightAware Approximate
Mon 05:52:00 PM 23.4378 -82.4417 172° South  Level FlightAware Approximate
Mon 05:53:00 PM 23.3196 -82.4270 175° South  Level FlightAware Approximate
Mon 05:54:00 PM 23.2010 -82.4167 180° South  Level FlightAware Approximate
Mon 05:55:00 PM 23.0828 -82.4066 170° South  Level FlightAware Approximate
Mon 05:56:00 PM 22.9891 -82.4091 180° South  Level Estimated
Mon 05:57:00 PM 22.9891 -82.4091 180° South  Level Estimated
Mon 05:58:00 PM 22.9891 -82.4091 180° South  Level Estimated
Mon 05:59:00 PM 22.9891 -82.4091 180° South  Level Estimated
Mon 06:00:00 PM 22.9891 -82.4091 180° South  Level Estimated
Mon 06:01:00 PM 22.9891 -82.4091 180° South  Level Estimated
Mon 06:02:00 PM 22.9891 -82.4091 180° South  Level Estimated
Mon 06:03:00 PM 22.9891 -82.4091 180° South  Level Estimated
Mon 06:04:00 PM 22.9891 -82.4091 180° South  Level Estimated
Mon 06:05:00 PM 22.9891 -82.4091 180° South  Level Estimated
Mon 06:06:00 PM 22.9891 -82.4091 180° South  Level Estimated
Mon 06:07:00 PM 22.9891 -82.4091 180° South  Level Estimated
Mon 06:08:00 PM 22.9891 -82.4091 180° South  Level Estimated
Mon 06:09:00 PM 22.9891 -82.4091 180° South  Level Estimated
Mon 06:10:00 PM 22.9891 -82.4091 180° South  Level Estimated
Mon 06:11:00 PM 22.9891 -82.4091 180° South  Level Estimated
Mon 06:12:00 PM 22.9891 -82.4091 180° South  Level Estimated
Mon 06:13:00 PM 22.9891 -82.4091 180° South  Level Estimated
Mon 06:14:00 PM 22.9891 -82.4091 180° South  Level Estimated
Mon 06:15:00 PM 22.9891 -82.4091 180° South  Level Estimated
Mon 06:16:00 PM 22.9891 -82.4091 180° South  Level Estimated
Mon 06:17:00 PM 22.9891 -82.4091 180° South  Level Estimated
Mon 06:18:00 PM 22.9891 -82.4091 180° South  Level Estimated

Login

Don't have an account? Register now (free) for customized features, flight alerts, and more!